sensor_id;sensor_type;location;lat;lon;timestamp;P1;durP1;ratioP1;P2;durP2;ratioP2
31514;SDS011;40526;52.088;17.020;2023-04-01T00:03:35;22.77;;;14.02;;
31514;SDS011;40526;52.088;17.020;2023-04-01T00:08:37;21.83;;;14.60;;
31514;SDS011;40526;52.088;17.020;2023-04-01T00:13:40;22.00;;;13.50;;
31514;SDS011;40526;52.088;17.020;2023-04-01T00:18:44;24.63;;;14.32;;
31514;SDS011;40526;52.088;17.020;2023-04-01T00:23:47;20.95;;;13.32;;
31514;SDS011;40526;52.088;17.020;2023-04-01T00:28:50;19.95;;;14.00;;
31514;SDS011;40526;52.088;17.020;2023-04-01T00:33:53;25.83;;;14.63;;
31514;SDS011;40526;52.088;17.020;2023-04-01T00:38:57;22.20;;;15.05;;
31514;SDS011;40526;52.088;17.020;2023-04-01T00:44:17;22.38;;;14.70;;
31514;SDS011;40526;52.088;17.020;2023-04-01T00:49:23;26.10;;;14.88;;
31514;SDS011;40526;52.088;17.020;2023-04-01T00:54:29;26.02;;;16.25;;
31514;SDS011;40526;52.088;17.020;2023-04-01T00:59:32;28.55;;;17.63;;
31514;SDS011;40526;52.088;17.020;2023-04-01T01:04:39;29.05;;;18.02;;
31514;SDS011;40526;52.088;17.020;2023-04-01T01:09:43;27.95;;;18.10;;
31514;SDS011;40526;52.088;17.020;2023-04-01T01:14:53;29.50;;;19.13;;
31514;SDS011;40526;52.088;17.020;2023-04-01T01:20:02;27.08;;;17.50;;
31514;SDS011;40526;52.088;17.020;2023-04-01T01:25:39;26.80;;;17.45;;
31514;SDS011;40526;52.088;17.020;2023-04-01T01:30:48;26.77;;;17.55;;
31514;SDS011;40526;52.088;17.020;2023-04-01T01:35:58;25.88;;;17.10;;
31514;SDS011;40526;52.088;17.020;2023-04-01T01:41:02;24.73;;;16.77;;
31514;SDS011;40526;52.088;17.020;2023-04-01T01:46:07;27.90;;;17.65;;
31514;SDS011;40526;52.088;17.020;2023-04-01T01:51:12;30.92;;;18.75;;
31514;SDS011;40526;52.088;17.020;2023-04-01T01:56:15;29.90;;;16.70;;
31514;SDS011;40526;52.088;17.020;2023-04-01T02:01:22;23.92;;;17.15;;
31514;SDS011;40526;52.088;17.020;2023-04-01T02:06:31;30.08;;;15.57;;
31514;SDS011;40526;52.088;17.020;2023-04-01T02:11:40;23.75;;;16.13;;
31514;SDS011;40526;52.088;17.020;2023-04-01T02:16:49;21.95;;;14.70;;
31514;SDS011;40526;52.088;17.020;2023-04-01T02:21:57;22.23;;;14.23;;
31514;SDS011;40526;52.088;17.020;2023-04-01T02:27:03;23.17;;;14.68;;
31514;SDS011;40526;52.088;17.020;2023-04-01T02:32:06;21.45;;;14.43;;
31514;SDS011;40526;52.088;17.020;2023-04-01T02:37:11;19.88;;;12.75;;
31514;SDS011;40526;52.088;17.020;2023-04-01T02:42:15;19.08;;;12.88;;
31514;SDS011;40526;52.088;17.020;2023-04-01T02:47:17;18.38;;;12.88;;
31514;SDS011;40526;52.088;17.020;2023-04-01T02:52:21;20.23;;;12.68;;
31514;SDS011;40526;52.088;17.020;2023-04-01T02:57:24;18.38;;;11.70;;
31514;SDS011;40526;52.088;17.020;2023-04-01T03:02:26;21.10;;;11.93;;
31514;SDS011;40526;52.088;17.020;2023-04-01T03:07:30;16.02;;;11.00;;
31514;SDS011;40526;52.088;17.020;2023-04-01T03:12:33;19.33;;;12.73;;
31514;SDS011;40526;52.088;17.020;2023-04-01T03:17:35;17.73;;;12.13;;
31514;SDS011;40526;52.088;17.020;2023-04-01T03:22:39;19.92;;;13.02;;
31514;SDS011;40526;52.088;17.020;2023-04-01T03:27:42;18.25;;;12.05;;
31514;SDS011;40526;52.088;17.020;2023-04-01T03:32:45;24.02;;;13.10;;
31514;SDS011;40526;52.088;17.020;2023-04-01T03:37:49;25.17;;;13.93;;
31514;SDS011;40526;52.088;17.020;2023-04-01T03:42:52;19.08;;;12.68;;
31514;SDS011;40526;52.088;17.020;2023-04-01T03:47:56;17.45;;;12.13;;
31514;SDS011;40526;52.088;17.020;2023-04-01T03:53:00;21.25;;;11.35;;
31514;SDS011;40526;52.088;17.020;2023-04-01T03:58:02;21.60;;;13.57;;
31514;SDS011;40526;52.088;17.020;2023-04-01T04:03:05;25.52;;;12.32;;
31514;SDS011;40526;52.088;17.020;2023-04-01T04:08:11;19.35;;;11.82;;
31514;SDS011;40526;52.088;17.020;2023-04-01T04:13:13;15.35;;;10.95;;
31514;SDS011;40526;52.088;17.020;2023-04-01T04:18:23;16.27;;;10.63;;
31514;SDS011;40526;52.088;17.020;2023-04-01T04:23:27;16.05;;;10.32;;
31514;SDS011;40526;52.088;17.020;2023-04-01T04:28:31;18.15;;;12.73;;
31514;SDS011;40526;52.088;17.020;2023-04-01T04:33:33;18.25;;;11.68;;
31514;SDS011;40526;52.088;17.020;2023-04-01T04:38:38;18.88;;;12.68;;
31514;SDS011;40526;52.088;17.020;2023-04-01T04:43:41;20.60;;;15.00;;
31514;SDS011;40526;52.088;17.020;2023-04-01T04:48:44;21.48;;;14.13;;
31514;SDS011;40526;52.088;17.020;2023-04-01T04:53:49;25.30;;;14.15;;
31514;SDS011;40526;52.088;17.020;2023-04-01T04:58:52;22.90;;;14.27;;
31514;SDS011;40526;52.088;17.020;2023-04-01T05:03:59;29.70;;;16.60;;
31514;SDS011;40526;52.088;17.020;2023-04-01T05:09:03;25.13;;;15.98;;
31514;SDS011;40526;52.088;17.020;2023-04-01T05:14:05;27.75;;;18.52;;
31514;SDS011;40526;52.088;17.020;2023-04-01T05:19:08;25.52;;;15.65;;
31514;SDS011;40526;52.088;17.020;2023-04-01T05:24:11;24.90;;;15.70;;
31514;SDS011;40526;52.088;17.020;2023-04-01T05:29:14;26.65;;;15.98;;
31514;SDS011;40526;52.088;17.020;2023-04-01T05:34:20;27.52;;;18.55;;
31514;SDS011;40526;52.088;17.020;2023-04-01T05:39:24;26.00;;;16.65;;
31514;SDS011;40526;52.088;17.020;2023-04-01T05:44:26;21.55;;;14.27;;
31514;SDS011;40526;52.088;17.020;2023-04-01T05:49:37;17.38;;;11.52;;
31514;SDS011;40526;52.088;17.020;2023-04-01T05:54:42;20.95;;;13.40;;
31514;SDS011;40526;52.088;17.020;2023-04-01T05:59:44;18.10;;;12.15;;
31514;SDS011;40526;52.088;17.020;2023-04-01T06:04:47;15.73;;;11.50;;
31514;SDS011;40526;52.088;17.020;2023-04-01T06:09:51;17.23;;;11.48;;
31514;SDS011;40526;52.088;17.020;2023-04-01T06:14:56;18.25;;;11.77;;
31514;SDS011;40526;52.088;17.020;2023-04-01T06:20:09;14.70;;;10.38;;
31514;SDS011;40526;52.088;17.020;2023-04-01T06:25:18;15.65;;;11.32;;
31514;SDS011;40526;52.088;17.020;2023-04-01T06:30:49;14.65;;;10.90;;
31514;SDS011;40526;52.088;17.020;2023-04-01T06:41:50;12.43;;;9.63;;
31514;SDS011;40526;52.088;17.020;2023-04-01T06:47:20;13.45;;;10.60;;
31514;SDS011;40526;52.088;17.020;2023-04-01T06:52:46;12.38;;;9.88;;
31514;SDS011;40526;52.088;17.020;2023-04-01T06:58:25;13.73;;;9.43;;
31514;SDS011;40526;52.088;17.020;2023-04-01T07:03:32;13.30;;;8.07;;
31514;SDS011;40526;52.088;17.020;2023-04-01T07:08:40;11.55;;;8.43;;
31514;SDS011;40526;52.088;17.020;2023-04-01T07:13:48;10.82;;;7.75;;
31514;SDS011;40526;52.088;17.020;2023-04-01T07:18:53;8.80;;;7.22;;
31514;SDS011;40526;52.088;17.020;2023-04-01T07:24:09;11.13;;;7.70;;
31514;SDS011;40526;52.088;17.020;2023-04-01T07:29:23;12.43;;;8.60;;
31514;SDS011;40526;52.088;17.020;2023-04-01T07:34:30;13.00;;;8.57;;
31514;SDS011;40526;52.088;17.020;2023-04-01T07:39:44;11.77;;;6.72;;
31514;SDS011;40526;52.088;17.020;2023-04-01T07:45:11;12.98;;;8.57;;
31514;SDS011;40526;52.088;17.020;2023-04-01T07:50:26;9.68;;;7.47;;
31514;SDS011;40526;52.088;17.020;2023-04-01T07:55:33;17.38;;;11.05;;
31514;SDS011;40526;52.088;17.020;2023-04-01T08:00:44;18.55;;;11.80;;
31514;SDS011;40526;52.088;17.020;2023-04-01T08:06:03;20.38;;;12.45;;
31514;SDS011;40526;52.088;17.020;2023-04-01T08:11:14;12.57;;;9.80;;
31514;SDS011;40526;52.088;17.020;2023-04-01T08:16:46;11.63;;;9.07;;
31514;SDS011;40526;52.088;17.020;2023-04-01T08:22:12;11.25;;;8.48;;
31514;SDS011;40526;52.088;17.020;2023-04-01T08:27:23;12.13;;;8.65;;
31514;SDS011;40526;52.088;17.020;2023-04-01T08:32:32;12.05;;;8.98;;
31514;SDS011;40526;52.088;17.020;2023-04-01T08:37:38;13.02;;;8.98;;
31514;SDS011;40526;52.088;17.020;2023-04-01T08:42:51;13.48;;;9.68;;
31514;SDS011;40526;52.088;17.020;2023-04-01T08:48:20;11.88;;;9.48;;
31514;SDS011;40526;52.088;17.020;2023-04-01T08:53:58;15.63;;;10.65;;
31514;SDS011;40526;52.088;17.020;2023-04-01T08:59:17;13.90;;;10.57;;
31514;SDS011;40526;52.088;17.020;2023-04-01T09:04:39;15.25;;;10.55;;
31514;SDS011;40526;52.088;17.020;2023-04-01T09:09:59;14.98;;;10.25;;
31514;SDS011;40526;52.088;17.020;2023-04-01T09:26:37;10.88;;;8.98;;
31514;SDS011;40526;52.088;17.020;2023-04-01T09:31:58;12.82;;;9.07;;
31514;SDS011;40526;52.088;17.020;2023-04-01T09:37:34;12.05;;;8.70;;
31514;SDS011;40526;52.088;17.020;2023-04-01T09:42:53;12.30;;;8.50;;
31514;SDS011;40526;52.088;17.020;2023-04-01T09:53:31;9.90;;;6.50;;
31514;SDS011;40526;52.088;17.020;2023-04-01T10:16:14;6.03;;;5.15;;
31514;SDS011;40526;52.088;17.020;2023-04-01T10:21:54;5.43;;;4.72;;
31514;SDS011;40526;52.088;17.020;2023-04-01T10:44:42;23.27;;;12.95;;
31514;SDS011;40526;52.088;17.020;2023-04-01T10:50:24;25.50;;;15.80;;
31514;SDS011;40526;52.088;17.020;2023-04-01T11:01:45;29.40;;;16.20;;
31514;SDS011;40526;52.088;17.020;2023-04-01T11:07:27;24.48;;;14.52;;
31514;SDS011;40526;52.088;17.020;2023-04-01T11:13:00;41.33;;;19.55;;
31514;SDS011;40526;52.088;17.020;2023-04-01T11:18:15;27.35;;;14.30;;
31514;SDS011;40526;52.088;17.020;2023-04-01T11:23:33;24.88;;;14.73;;
31514;SDS011;40526;52.088;17.020;2023-04-01T11:28:49;31.02;;;16.85;;
31514;SDS011;40526;52.088;17.020;2023-04-01T11:34:08;28.13;;;16.70;;
31514;SDS011;40526;52.088;17.020;2023-04-01T11:39:24;24.55;;;14.48;;
31514;SDS011;40526;52.088;17.020;2023-04-01T11:44:36;32.15;;;16.52;;
31514;SDS011;40526;52.088;17.020;2023-04-01T11:49:58;22.95;;;14.32;;
31514;SDS011;40526;52.088;17.020;2023-04-01T11:55:22;21.23;;;14.02;;
31514;SDS011;40526;52.088;17.020;2023-04-01T12:00:39;24.90;;;16.13;;
31514;SDS011;40526;52.088;17.020;2023-04-01T12:05:54;25.40;;;15.23;;
31514;SDS011;40526;52.088;17.020;2023-04-01T12:11:03;29.15;;;16.35;;
31514;SDS011;40526;52.088;17.020;2023-04-01T12:16:19;29.27;;;16.95;;
31514;SDS011;40526;52.088;17.020;2023-04-01T12:21:32;32.30;;;18.55;;
31514;SDS011;40526;52.088;17.020;2023-04-01T12:26:43;34.15;;;17.95;;
31514;SDS011;40526;52.088;17.020;2023-04-01T12:31:58;37.70;;;21.23;;
31514;SDS011;40526;52.088;17.020;2023-04-01T12:37:06;41.00;;;21.23;;
31514;SDS011;40526;52.088;17.020;2023-04-01T12:42:14;35.78;;;20.23;;
31514;SDS011;40526;52.088;17.020;2023-04-01T12:47:22;28.10;;;17.52;;
31514;SDS011;40526;52.088;17.020;2023-04-01T12:52:55;38.53;;;20.65;;
31514;SDS011;40526;52.088;17.020;2023-04-01T13:03:44;41.90;;;22.98;;
31514;SDS011;40526;52.088;17.020;2023-04-01T13:09:13;40.55;;;21.23;;
31514;SDS011;40526;52.088;17.020;2023-04-01T13:14:26;62.53;;;26.70;;
31514;SDS011;40526;52.088;17.020;2023-04-01T13:19:43;33.78;;;17.70;;
31514;SDS011;40526;52.088;17.020;2023-04-01T13:24:58;29.73;;;17.70;;
31514;SDS011;40526;52.088;17.020;2023-04-01T13:30:12;28.42;;;15.98;;
31514;SDS011;40526;52.088;17.020;2023-04-01T13:35:29;28.42;;;16.90;;
31514;SDS011;40526;52.088;17.020;2023-04-01T13:40:41;26.65;;;15.45;;
31514;SDS011;40526;52.088;17.020;2023-04-01T13:45:50;24.88;;;14.55;;
31514;SDS011;40526;52.088;17.020;2023-04-01T13:56:40;28.15;;;15.98;;
31514;SDS011;40526;52.088;17.020;2023-04-01T14:01:49;24.20;;;14.63;;
31514;SDS011;40526;52.088;17.020;2023-04-01T14:07:00;21.35;;;13.93;;
31514;SDS011;40526;52.088;17.020;2023-04-01T14:12:18;24.75;;;16.83;;
31514;SDS011;40526;52.088;17.020;2023-04-01T14:17:27;28.40;;;15.70;;
31514;SDS011;40526;52.088;17.020;2023-04-01T14:22:52;27.55;;;16.63;;
31514;SDS011;40526;52.088;17.020;2023-04-01T14:28:01;27.17;;;16.35;;
31514;SDS011;40526;52.088;17.020;2023-04-01T14:33:10;23.65;;;15.23;;
31514;SDS011;40526;52.088;17.020;2023-04-01T14:38:24;24.40;;;14.15;;
31514;SDS011;40526;52.088;17.020;2023-04-01T14:49:13;26.63;;;17.73;;
31514;SDS011;40526;52.088;17.020;2023-04-01T14:54:17;29.00;;;17.95;;
31514;SDS011;40526;52.088;17.020;2023-04-01T14:59:27;30.33;;;17.80;;
31514;SDS011;40526;52.088;17.020;2023-04-01T15:09:57;21.27;;;14.73;;
31514;SDS011;40526;52.088;17.020;2023-04-01T15:15:04;17.90;;;13.43;;
31514;SDS011;40526;52.088;17.020;2023-04-01T15:20:29;18.83;;;14.25;;
31514;SDS011;40526;52.088;17.020;2023-04-01T15:25:51;13.80;;;10.98;;
31514;SDS011;40526;52.088;17.020;2023-04-01T15:31:14;12.77;;;10.57;;
31514;SDS011;40526;52.088;17.020;2023-04-01T15:36:23;14.98;;;10.65;;
31514;SDS011;40526;52.088;17.020;2023-04-01T15:41:28;12.90;;;10.88;;
31514;SDS011;40526;52.088;17.020;2023-04-01T15:46:43;16.55;;;12.57;;
31514;SDS011;40526;52.088;17.020;2023-04-01T15:51:51;16.58;;;13.57;;
31514;SDS011;40526;52.088;17.020;2023-04-01T15:57:07;12.43;;;10.50;;
31514;SDS011;40526;52.088;17.020;2023-04-01T16:02:18;13.93;;;11.25;;
31514;SDS011;40526;52.088;17.020;2023-04-01T16:12:36;19.40;;;12.80;;
31514;SDS011;40526;52.088;17.020;2023-04-01T16:18:00;17.52;;;13.32;;
31514;SDS011;40526;52.088;17.020;2023-04-01T16:23:10;16.65;;;11.07;;
31514;SDS011;40526;52.088;17.020;2023-04-01T16:28:21;13.85;;;11.00;;
31514;SDS011;40526;52.088;17.020;2023-04-01T16:33:32;15.70;;;11.90;;
31514;SDS011;40526;52.088;17.020;2023-04-01T16:38:43;13.57;;;10.55;;
31514;SDS011;40526;52.088;17.020;2023-04-01T16:43:52;15.10;;;11.13;;
31514;SDS011;40526;52.088;17.020;2023-04-01T16:48:59;21.38;;;15.43;;
31514;SDS011;40526;52.088;17.020;2023-04-01T16:54:26;18.45;;;13.48;;
31514;SDS011;40526;52.088;17.020;2023-04-01T16:59:34;18.42;;;13.93;;
31514;SDS011;40526;52.088;17.020;2023-04-01T17:04:39;21.02;;;13.77;;
31514;SDS011;40526;52.088;17.020;2023-04-01T17:09:47;22.65;;;15.48;;
31514;SDS011;40526;52.088;17.020;2023-04-01T17:15:08;21.13;;;14.80;;
31514;SDS011;40526;52.088;17.020;2023-04-01T17:20:28;17.85;;;13.18;;
31514;SDS011;40526;52.088;17.020;2023-04-01T17:25:39;18.40;;;13.02;;
31514;SDS011;40526;52.088;17.020;2023-04-01T17:30:51;17.05;;;13.05;;
31514;SDS011;40526;52.088;17.020;2023-04-01T17:36:02;20.40;;;15.15;;
31514;SDS011;40526;52.088;17.020;2023-04-01T17:41:12;18.85;;;14.05;;
31514;SDS011;40526;52.088;17.020;2023-04-01T17:46:30;23.80;;;14.93;;
31514;SDS011;40526;52.088;17.020;2023-04-01T17:51:40;17.40;;;12.30;;
31514;SDS011;40526;52.088;17.020;2023-04-01T17:56:48;17.98;;;12.77;;
31514;SDS011;40526;52.088;17.020;2023-04-01T18:01:59;18.80;;;14.63;;
31514;SDS011;40526;52.088;17.020;2023-04-01T18:07:11;20.40;;;15.15;;
31514;SDS011;40526;52.088;17.020;2023-04-01T18:12:18;21.25;;;15.95;;
31514;SDS011;40526;52.088;17.020;2023-04-01T18:17:25;19.80;;;13.15;;
31514;SDS011;40526;52.088;17.020;2023-04-01T18:22:29;20.40;;;16.42;;
31514;SDS011;40526;52.088;17.020;2023-04-01T18:27:39;22.10;;;15.90;;
31514;SDS011;40526;52.088;17.020;2023-04-01T18:32:47;34.30;;;18.65;;
31514;SDS011;40526;52.088;17.020;2023-04-01T18:37:52;20.48;;;14.35;;
31514;SDS011;40526;52.088;17.020;2023-04-01T18:43:05;23.02;;;13.60;;
31514;SDS011;40526;52.088;17.020;2023-04-01T18:48:28;23.17;;;14.75;;
31514;SDS011;40526;52.088;17.020;2023-04-01T18:53:45;21.50;;;12.88;;
31514;SDS011;40526;52.088;17.020;2023-04-01T18:58:58;17.85;;;12.73;;
31514;SDS011;40526;52.088;17.020;2023-04-01T19:04:10;20.40;;;13.48;;
31514;SDS011;40526;52.088;17.020;2023-04-01T19:09:22;25.10;;;15.05;;
31514;SDS011;40526;52.088;17.020;2023-04-01T19:14:28;21.13;;;13.77;;
31514;SDS011;40526;52.088;17.020;2023-04-01T19:19:42;20.58;;;13.38;;
31514;SDS011;40526;52.088;17.020;2023-04-01T19:24:50;20.55;;;13.43;;
31514;SDS011;40526;52.088;17.020;2023-04-01T19:30:13;17.70;;;12.32;;
31514;SDS011;40526;52.088;17.020;2023-04-01T19:35:33;19.58;;;12.38;;
31514;SDS011;40526;52.088;17.020;2023-04-01T19:40:44;22.23;;;14.02;;
31514;SDS011;40526;52.088;17.020;2023-04-01T19:45:54;21.65;;;13.70;;
31514;SDS011;40526;52.088;17.020;2023-04-01T19:51:09;17.55;;;12.95;;
31514;SDS011;40526;52.088;17.020;2023-04-01T19:56:14;19.08;;;13.05;;
31514;SDS011;40526;52.088;17.020;2023-04-01T20:01:21;18.23;;;12.10;;
31514;SDS011;40526;52.088;17.020;2023-04-01T20:06:32;15.68;;;11.07;;
31514;SDS011;40526;52.088;17.020;2023-04-01T20:11:41;16.60;;;11.35;;
31514;SDS011;40526;52.088;17.020;2023-04-01T20:17:01;17.45;;;12.45;;
31514;SDS011;40526;52.088;17.020;2023-04-01T20:22:08;14.38;;;10.70;;
31514;SDS011;40526;52.088;17.020;2023-04-01T20:27:26;24.77;;;14.03;;
31514;SDS011;40526;52.088;17.020;2023-04-01T20:32:40;35.35;;;18.55;;
31514;SDS011;40526;52.088;17.020;2023-04-01T20:38:04;21.23;;;13.15;;
31514;SDS011;40526;52.088;17.020;2023-04-01T20:43:35;17.73;;;12.82;;
31514;SDS011;40526;52.088;17.020;2023-04-01T20:54:21;18.30;;;14.10;;
31514;SDS011;40526;52.088;17.020;2023-04-01T20:59:34;19.50;;;13.85;;
31514;SDS011;40526;52.088;17.020;2023-04-01T21:04:41;31.42;;;15.27;;
31514;SDS011;40526;52.088;17.020;2023-04-01T21:10:11;23.33;;;15.25;;
31514;SDS011;40526;52.088;17.020;2023-04-01T21:20:45;16.98;;;12.75;;
31514;SDS011;40526;52.088;17.020;2023-04-01T21:26:07;20.67;;;13.40;;
31514;SDS011;40526;52.088;17.020;2023-04-01T21:31:33;22.60;;;13.25;;
31514;SDS011;40526;52.088;17.020;2023-04-01T21:36:42;23.70;;;15.43;;
31514;SDS011;40526;52.088;17.020;2023-04-01T21:41:56;25.98;;;15.88;;
31514;SDS011;40526;52.088;17.020;2023-04-01T21:47:23;26.02;;;15.98;;
31514;SDS011;40526;52.088;17.020;2023-04-01T21:52:58;23.67;;;15.52;;
31514;SDS011;40526;52.088;17.020;2023-04-01T21:58:32;20.20;;;15.32;;
31514;SDS011;40526;52.088;17.020;2023-04-01T22:09:25;20.73;;;14.48;;
31514;SDS011;40526;52.088;17.020;2023-04-01T22:14:37;23.25;;;16.48;;
31514;SDS011;40526;52.088;17.020;2023-04-01T22:19:45;22.88;;;16.27;;
31514;SDS011;40526;52.088;17.020;2023-04-01T22:24:59;24.25;;;15.18;;
31514;SDS011;40526;52.088;17.020;2023-04-01T22:30:11;19.85;;;14.38;;
31514;SDS011;40526;52.088;17.020;2023-04-01T22:35:27;24.58;;;16.08;;
31514;SDS011;40526;52.088;17.020;2023-04-01T22:40:36;24.30;;;15.07;;
31514;SDS011;40526;52.088;17.020;2023-04-01T22:45:51;23.92;;;14.52;;
31514;SDS011;40526;52.088;17.020;2023-04-01T22:50:58;25.08;;;15.77;;
31514;SDS011;40526;52.088;17.020;2023-04-01T22:56:03;24.25;;;15.77;;
31514;SDS011;40526;52.088;17.020;2023-04-01T23:01:12;26.75;;;17.65;;
31514;SDS011;40526;52.088;17.020;2023-04-01T23:06:17;26.05;;;17.90;;
31514;SDS011;40526;52.088;17.020;2023-04-01T23:11:22;33.72;;;18.83;;
31514;SDS011;40526;52.088;17.020;2023-04-01T23:16:30;28.95;;;17.70;;
31514;SDS011;40526;52.088;17.020;2023-04-01T23:21:38;31.92;;;18.10;;
31514;SDS011;40526;52.088;17.020;2023-04-01T23:26:46;30.45;;;18.67;;
31514;SDS011;40526;52.088;17.020;2023-04-01T23:31:59;33.70;;;19.70;;
31514;SDS011;40526;52.088;17.020;2023-04-01T23:37:04;28.13;;;17.55;;
31514;SDS011;40526;52.088;17.020;2023-04-01T23:42:12;33.50;;;19.00;;
31514;SDS011;40526;52.088;17.020;2023-04-01T23:47:19;36.17;;;21.02;;
31514;SDS011;40526;52.088;17.020;2023-04-01T23:52:24;31.92;;;19.42;;
31514;SDS011;40526;52.088;17.020;2023-04-01T23:57:29;32.63;;;20.80;;
